Time;durP1;ratioP1;P1;durP2;ratioP2;P2;SDS_P1;SDS_P2;PMS_P1;PMS_P2;Temp;Humidity;BMP_temperature;BMP_pressure;BME280_temperature;BME280_humidity;BME280_pressure;Samples;Min_cycle;Max_cycle;Signal;HPM_P1;HPM_P2
2023/11/19 00:00:42;;;;;;;5.07;2.37;;;5.30;99.90;5.10;100598.00;;;;4954388;28;102811;-66
2023/11/19 00:03:08;;;;;;;2.17;1.93;;;5.20;99.90;5.10;100591.00;;;;4952534;28;108983;-66
2023/11/19 00:05:34;;;;;;;4.83;2.67;;;5.10;99.90;5.00;100589.00;;;;4960184;28;83549;-65
2023/11/19 00:07:59;;;;;;;4.57;3.07;;;5.30;99.90;5.00;100573.00;;;;4955079;28;83155;-66
2023/11/19 00:10:25;;;;;;;3.67;2.67;;;5.80;99.90;5.00;100549.00;;;;4957442;28;110091;-66
2023/11/19 00:12:51;;;;;;;2.63;2.10;;;5.20;99.90;5.00;100539.00;;;;4968474;28;108973;-65
2023/11/19 00:15:18;;;;;;;2.60;1.93;;;5.70;99.90;5.00;100531.00;;;;4956308;28;111672;-66
2023/11/19 00:17:48;;;;;;;4.40;2.30;;;5.10;99.90;5.00;100535.00;;;;4953371;28;100873;-65
2023/11/19 00:20:18;;;;;;;2.07;1.93;;;5.20;99.90;5.00;100536.00;;;;4960160;28;82623;-65
2023/11/19 00:22:48;;;;;;;4.17;2.23;;;5.10;99.90;5.00;100524.00;;;;4961400;28;83692;-67
2023/11/19 00:25:14;;;;;;;3.67;2.70;;;5.60;99.90;5.00;100515.00;;;;4957352;28;83915;-65
2023/11/19 00:27:39;;;;;;;1.97;1.70;;;5.10;99.90;5.00;100517.00;;;;4956170;28;113534;-67
2023/11/19 00:30:06;;;;;;;3.37;2.10;;;5.20;99.90;5.00;100510.00;;;;4953005;28;82878;-66
2023/11/19 00:32:33;;;;;;;3.57;2.50;;;5.10;99.90;4.90;100501.00;;;;4963287;28;82758;-64
2023/11/19 00:34:58;;;;;;;2.87;2.40;;;5.00;99.90;4.90;100496.00;;;;4954783;28;113826;-65
2023/11/19 00:37:24;;;;;;;6.13;2.43;;;5.40;99.90;5.00;100494.00;;;;4957127;28;112632;-66
2023/11/19 00:39:51;;;;;;;4.27;2.67;;;5.10;99.90;5.00;100493.00;;;;4957017;28;110256;-67
2023/11/19 00:42:17;;;;;;;2.77;1.97;;;5.10;99.90;5.00;100487.00;;;;4949401;28;83004;-66
2023/11/19 00:44:43;;;;;;;2.90;2.10;;;5.10;99.90;5.00;100479.00;;;;4956844;28;104123;-66
2023/11/19 00:47:08;;;;;;;2.00;1.90;;;5.50;99.90;5.00;100476.00;;;;4952467;28;83826;-66
2023/11/19 00:49:34;;;;;;;3.33;2.27;;;5.10;99.90;5.00;100484.00;;;;4962121;28;111325;-67
2023/11/19 00:52:01;;;;;;;2.80;2.23;;;5.10;99.90;5.00;100471.00;;;;4965869;28;83199;-67
2023/11/19 00:54:27;;;;;;;2.23;2.03;;;5.10;99.90;5.00;100478.00;;;;4954681;28;83800;-66
2023/11/19 00:56:56;;;;;;;4.40;2.20;;;5.20;99.90;5.00;100463.00;;;;4957133;28;112552;-66
2023/11/19 00:59:22;;;;;;;3.07;2.17;;;5.10;99.90;5.00;100461.00;;;;4954799;28;82833;-66
2023/11/19 01:01:48;;;;;;;3.07;2.70;;;5.10;99.90;4.90;100452.00;;;;4952716;28;108774;-66
2023/11/19 01:04:14;;;;;;;3.03;2.60;;;5.10;99.90;4.90;100448.00;;;;4956813;28;82405;-66
2023/11/19 01:06:41;;;;;;;4.17;2.33;;;5.00;99.90;4.80;100432.00;;;;4958373;28;83156;-68
2023/11/19 01:09:08;;;;;;;2.60;2.40;;;5.00;99.90;4.70;100431.00;;;;4960558;28;82632;-66
2023/11/19 01:11:34;;;;;;;2.60;2.33;;;4.90;99.90;4.70;100435.00;;;;4955998;28;84772;-67
2023/11/19 01:14:00;;;;;;;3.90;2.33;;;5.40;99.90;4.60;100440.00;;;;4951542;28;93608;-67
2023/11/19 01:16:26;;;;;;;3.70;2.57;;;4.90;99.90;4.60;100423.00;;;;4955918;28;111332;-67
2023/11/19 01:18:52;;;;;;;4.07;2.70;;;5.60;99.90;4.50;100420.00;;;;4966257;28;83037;-66
2023/11/19 01:21:21;;;;;;;4.47;2.80;;;4.70;99.90;4.50;100417.00;;;;4954334;28;108250;-68
2023/11/19 01:23:47;;;;;;;7.67;3.27;;;4.70;99.90;4.40;100407.00;;;;4956872;28;83782;-67
2023/11/19 01:26:13;;;;;;;4.90;3.30;;;4.60;99.90;4.40;100390.00;;;;4951380;28;112314;-67
2023/11/19 01:28:44;;;;;;;2.73;2.43;;;4.60;99.90;4.40;100385.00;;;;4965444;28;85923;-67
2023/11/19 01:31:12;;;;;;;3.73;2.70;;;4.50;99.90;4.30;100388.00;;;;4956865;28;83038;-66
2023/11/19 01:33:39;;;;;;;4.03;3.03;;;5.00;99.90;4.30;100391.00;;;;4951609;28;83004;-66
2023/11/19 01:36:05;;;;;;;4.60;3.47;;;4.50;99.90;4.30;100379.00;;;;4953602;28;84520;-66
2023/11/19 01:38:31;;;;;;;3.37;3.07;;;4.50;99.90;4.30;100374.00;;;;4954798;28;99504;-68
2023/11/19 01:40:57;;;;;;;7.00;3.40;;;4.50;99.90;4.30;100361.00;;;;4954345;28;109662;-66
2023/11/19 01:43:37;;;;;;;2.67;2.27;;;5.20;99.90;4.20;100348.00;;;;4950921;28;112366;-67
2023/11/19 01:46:05;;;;;;;2.77;2.57;;;4.50;99.90;4.20;100326.00;;;;4967251;28;82848;-65
2023/11/19 01:48:33;;;;;;;5.40;3.03;;;4.50;99.90;4.20;100297.00;;;;4953612;28;82794;-65
2023/11/19 01:50:59;;;;;;;3.90;2.93;;;4.50;99.90;4.20;100316.00;;;;4954725;28;95543;-70
2023/11/19 01:53:25;;;;;;;5.80;3.93;;;4.50;99.90;4.10;100296.00;;;;4953894;28;111156;-70
2023/11/19 01:55:52;;;;;;;4.70;3.00;;;4.60;99.90;4.10;100301.00;;;;4952929;28;82723;-68
2023/11/19 01:58:19;;;;;;;4.33;3.23;;;5.00;99.90;4.10;100295.00;;;;4948452;28;82895;-69
2023/11/19 02:00:47;;;;;;;5.70;3.60;;;4.20;99.90;4.10;100302.00;;;;4950126;28;83667;-67
2023/11/19 02:03:14;;;;;;;8.17;3.67;;;4.20;99.90;4.00;100292.00;;;;4951124;28;111691;-70
2023/11/19 02:05:40;;;;;;;7.07;3.33;;;4.20;99.90;4.00;100277.00;;;;4966435;28;111553;-69
2023/11/19 02:08:06;;;;;;;5.70;3.60;;;4.20;99.90;4.00;100287.00;;;;4955844;28;110169;-69
2023/11/19 02:10:32;;;;;;;4.03;2.93;;;4.10;99.90;4.00;100265.00;;;;4955089;28;100489;-69
2023/11/19 02:12:58;;;;;;;4.00;3.00;;;4.20;99.90;3.90;100264.00;;;;4957990;28;112887;-69
2023/11/19 02:15:24;;;;;;;4.80;3.27;;;4.10;99.90;3.90;100246.00;;;;4961535;28;99349;-67
2023/11/19 02:17:51;;;;;;;4.67;3.33;;;4.10;99.90;3.90;100229.00;;;;4957727;28;100815;-67
2023/11/19 02:20:19;;;;;;;4.40;2.67;;;4.10;99.90;3.90;100233.00;;;;4955386;28;107825;-67
2023/11/19 02:22:50;;;;;;;5.03;3.17;;;4.10;99.90;3.90;100211.00;;;;4955921;28;84666;-67
2023/11/19 02:25:30;;;;;;;5.30;3.97;;;4.10;99.90;3.90;100215.00;;;;4959591;28;84877;-67
2023/11/19 02:28:01;;;;;;;4.17;2.47;;;4.10;99.90;3.90;100207.00;;;;4963201;28;83082;-68
2023/11/19 02:30:28;;;;;;;4.60;2.60;;;4.10;99.90;3.90;100198.00;;;;4964756;28;83093;-68
2023/11/19 02:32:58;;;;;;;7.97;3.67;;;4.20;99.90;3.90;100197.00;;;;4954201;28;83859;-68
2023/11/19 02:35:25;;;;;;;3.03;2.37;;;4.00;99.90;3.90;100208.00;;;;4959885;28;82983;-69
2023/11/19 02:37:51;;;;;;;2.73;2.20;;;4.80;99.90;3.90;100197.00;;;;4952571;28;82656;-68
2023/11/19 02:40:17;;;;;;;2.77;2.50;;;4.20;99.90;4.00;100207.00;;;;4956693;28;108948;-68
2023/11/19 02:42:43;;;;;;;3.43;2.27;;;4.20;99.90;4.00;100190.00;;;;4973437;28;81692;-67
2023/11/19 02:45:14;;;;;;;3.03;1.93;;;3.50;99.90;4.00;100195.00;;;;4956270;28;111650;-68
2023/11/19 02:47:43;;;;;;;2.50;2.27;;;4.20;99.90;4.00;100178.00;;;;4957553;28;82742;-68
2023/11/19 02:50:15;;;;;;;3.50;2.93;;;4.20;99.90;4.00;100178.00;;;;4956892;28;83858;-69
2023/11/19 02:52:42;;;;;;;2.57;2.37;;;4.30;99.90;4.10;100164.00;;;;4960904;28;82996;-69
2023/11/19 02:55:10;;;;;;;3.40;2.80;;;4.20;99.90;4.10;100153.00;;;;4958519;28;82883;-68
2023/11/19 02:57:36;;;;;;;2.70;2.50;;;4.20;99.90;4.10;100145.00;;;;4956028;28;83049;-69
2023/11/19 03:00:11;;;;;;;2.30;1.80;;;4.50;99.90;4.10;100147.00;;;;4954468;28;82833;-67
2023/11/19 03:02:58;;;;;;;3.13;2.63;;;4.40;99.90;4.10;100134.00;;;;4960830;28;83676;-67
2023/11/19 03:05:24;;;;;;;2.90;2.40;;;4.30;99.90;4.20;100117.00;;;;4959292;28;84486;-67
2023/11/19 03:07:50;;;;;;;2.23;1.67;;;4.40;99.90;4.20;100115.00;;;;4958495;28;104789;-70
2023/11/19 03:10:16;;;;;;;4.40;2.33;;;4.40;99.90;4.20;100102.00;;;;4957895;28;108900;-68
2023/11/19 03:12:43;;;;;;;3.43;2.10;;;4.40;99.90;4.20;100095.00;;;;4957402;28;112957;-68
2023/11/19 03:15:10;;;;;;;2.30;1.67;;;4.80;99.90;4.20;100094.00;;;;4955970;28;83732;-68
2023/11/19 03:17:38;;;;;;;2.60;1.87;;;4.40;99.90;4.30;100096.00;;;;4955806;28;83065;-69
2023/11/19 03:20:07;;;;;;;2.53;2.00;;;4.40;99.90;4.30;100082.00;;;;4963391;28;95031;-68
2023/11/19 03:22:43;;;;;;;1.80;1.70;;;4.50;99.90;4.30;100080.00;;;;4961343;28;82856;-69
2023/11/19 03:25:09;;;;;;;2.80;1.67;;;4.50;99.90;4.30;100066.00;;;;4955693;28;83535;-68
2023/11/19 03:27:36;;;;;;;3.77;2.60;;;4.60;99.90;4.40;100057.00;;;;4962249;28;82879;-69
2023/11/19 03:30:04;;;;;;;2.50;1.50;;;4.60;99.90;4.40;100061.00;;;;4958919;28;82844;-67
2023/11/19 03:32:32;;;;;;;2.73;1.83;;;4.60;99.90;4.40;100062.00;;;;4955399;28;82857;-68
2023/11/19 03:34:58;;;;;;;2.10;1.70;;;4.60;99.90;4.50;100056.00;;;;4958035;28;82872;-67
2023/11/19 03:37:23;;;;;;;2.23;1.73;;;4.70;99.90;4.50;100049.00;;;;4957749;28;82816;-68
2023/11/19 03:39:49;;;;;;;3.53;1.53;;;4.60;99.90;4.50;100040.00;;;;4966613;28;84128;-70
2023/11/19 03:42:15;;;;;;;1.63;1.53;;;4.70;99.90;4.60;100032.00;;;;4961432;28;111742;-69
2023/11/19 03:44:40;;;;;;;1.50;1.40;;;5.40;99.90;4.60;100030.00;;;;4955662;28;107298;-67
2023/11/19 03:47:06;;;;;;;1.80;1.70;;;4.80;99.90;4.60;100022.00;;;;4948507;28;110307;-69
2023/11/19 03:49:32;;;;;;;1.97;1.57;;;4.80;99.90;4.60;100023.00;;;;4955373;28;82634;-68
2023/11/19 03:51:58;;;;;;;1.50;1.40;;;5.20;99.90;4.70;100008.00;;;;4949025;28;82980;-69
2023/11/19 03:54:24;;;;;;;2.40;1.80;;;4.90;99.90;4.70;100011.00;;;;4958988;28;111126;-67
2023/11/19 03:56:49;;;;;;;2.67;1.13;;;4.80;99.90;4.70;100018.00;;;;4966016;28;82196;-69
2023/11/19 03:59:15;;;;;;;3.57;1.70;;;4.90;99.90;4.80;100013.00;;;;4958532;28;107404;-67
2023/11/19 04:01:41;;;;;;;2.43;2.00;;;4.90;99.90;4.80;100004.00;;;;4955355;28;113087;-67
2023/11/19 04:04:07;;;;;;;1.77;1.33;;;4.90;99.90;4.80;100002.00;;;;4953940;28;111616;-66
2023/11/19 04:06:32;;;;;;;1.77;1.30;;;5.00;99.90;4.80;99999.00;;;;4952529;28;110014;-68
2023/11/19 04:08:58;;;;;;;1.63;1.47;;;5.70;99.90;4.80;100003.00;;;;4948899;28;101731;-69
2023/11/19 04:11:24;;;;;;;1.67;1.50;;;5.30;99.90;4.80;99993.00;;;;4953726;28;82535;-68
2023/11/19 04:13:49;;;;;;;1.63;1.10;;;5.50;99.90;4.80;99989.00;;;;4955951;28;111903;-68
2023/11/19 04:16:15;;;;;;;1.50;1.40;;;5.60;99.90;4.80;99970.00;;;;4971069;28;109830;-69
2023/11/19 04:18:41;;;;;;;1.83;1.73;;;5.00;99.90;4.80;99968.00;;;;4956920;28;108278;-70
2023/11/19 04:21:10;;;;;;;1.67;1.20;;;5.00;99.90;4.80;99968.00;;;;4958930;28;110666;-69
2023/11/19 04:23:36;;;;;;;1.00;1.00;;;5.00;99.90;4.80;99959.00;;;;4954750;28;82831;-67
2023/11/19 04:26:04;;;;;;;1.53;0.90;;;5.00;99.90;4.80;99967.00;;;;4953715;28;105528;-69
2023/11/19 04:28:30;;;;;;;1.40;1.30;;;5.00;99.90;4.80;99946.00;;;;4951957;28;83973;-69
2023/11/19 04:30:56;;;;;;;2.13;1.07;;;4.90;99.90;4.80;99949.00;;;;4954836;28;106333;-73
2023/11/19 04:33:21;;;;;;;1.33;1.13;;;4.80;99.90;4.80;99938.00;;;;4952253;28;111898;-72
2023/11/19 04:35:47;;;;;;;1.07;1.00;;;4.90;99.90;4.70;99937.00;;;;4963193;28;110824;-71
2023/11/19 04:38:13;;;;;;;1.47;1.37;;;4.90;99.90;4.70;99922.00;;;;4957100;28;109115;-70
2023/11/19 04:40:38;;;;;;;1.60;1.47;;;4.90;99.90;4.70;99932.00;;;;4962968;28;83861;-72
2023/11/19 04:43:04;;;;;;;2.27;1.40;;;4.90;99.90;4.70;99940.00;;;;4953234;28;107433;-69
2023/11/19 04:45:30;;;;;;;1.67;1.13;;;4.80;99.90;4.70;99937.00;;;;4959004;28;110355;-69
2023/11/19 04:47:55;;;;;;;2.80;1.10;;;4.90;99.90;4.70;99933.00;;;;4957976;28;108908;-69
2023/11/19 04:50:21;;;;;;;1.73;1.00;;;4.80;99.90;4.70;99927.00;;;;4958232;28;111530;-68
2023/11/19 04:52:47;;;;;;;2.40;1.87;;;4.80;99.90;4.70;99928.00;;;;4958641;28;83648;-68
2023/11/19 04:55:14;;;;;;;1.67;1.37;;;4.90;99.90;4.70;99934.00;;;;4957457;28;95138;-72
2023/11/19 04:57:40;;;;;;;1.50;1.23;;;5.60;99.90;4.70;99919.00;;;;4955890;28;82805;-72
2023/11/19 05:00:11;;;;;;;2.47;1.53;;;4.80;99.90;4.70;99906.00;;;;4959524;28;88955;-70
2023/11/19 05:02:37;;;;;;;2.33;2.10;;;4.80;99.90;4.70;99896.00;;;;4956330;28;83014;-69
2023/11/19 05:05:04;;;;;;;2.83;1.70;;;4.90;99.90;4.70;99908.00;;;;4953472;28;82791;-70
2023/11/19 05:07:30;;;;;;;4.40;3.33;;;4.90;99.90;4.70;99897.00;;;;4955505;28;83241;-72
2023/11/19 05:09:56;;;;;;;2.57;1.73;;;4.90;99.90;4.70;99904.00;;;;4955445;28;82182;-70
2023/11/19 05:12:22;;;;;;;2.30;2.10;;;5.40;99.90;4.70;99896.00;;;;4961833;28;110830;-73
2023/11/19 05:14:50;;;;;;;2.00;1.90;;;4.80;99.90;4.70;99886.00;;;;4953991;28;82764;-72
2023/11/19 05:17:19;;;;;;;2.80;2.50;;;5.00;99.90;4.60;99892.00;;;;4955230;28;83696;-71
2023/11/19 05:19:46;;;;;;;4.20;2.40;;;4.80;99.90;4.60;99874.00;;;;4954171;28;82874;-72
2023/11/19 05:22:12;;;;;;;8.03;3.53;;;4.70;99.90;4.60;99876.00;;;;4957203;28;84153;-70
2023/11/19 05:24:39;;;;;;;4.03;2.77;;;4.80;99.90;4.60;99876.00;;;;4957698;28;83012;-71
2023/11/19 05:27:06;;;;;;;6.30;3.93;;;4.70;99.90;4.60;99866.00;;;;4958414;28;82664;-70
2023/11/19 05:29:32;;;;;;;5.53;2.73;;;4.70;99.90;4.60;99861.00;;;;4954606;28;83666;-71
2023/11/19 05:31:58;;;;;;;6.47;2.90;;;4.70;99.90;4.60;99857.00;;;;4969705;28;82838;-71
2023/11/19 05:34:24;;;;;;;3.87;2.63;;;4.70;99.90;4.60;99840.00;;;;4956962;28;110356;-72
2023/11/19 05:36:50;;;;;;;2.53;1.60;;;5.00;99.90;4.50;99833.00;;;;4956594;28;83018;-69
2023/11/19 05:39:18;;;;;;;4.50;2.10;;;4.70;99.90;4.50;99834.00;;;;4956935;28;82730;-69
2023/11/19 05:41:44;;;;;;;2.43;2.23;;;4.70;99.90;4.50;99833.00;;;;4960321;28;83610;-68
2023/11/19 05:44:09;;;;;;;3.37;1.97;;;4.60;99.90;4.50;99825.00;;;;4955810;28;108180;-69
2023/11/19 05:46:40;;;;;;;3.60;2.17;;;4.70;99.90;4.50;99818.00;;;;4955623;28;107728;-69
2023/11/19 05:49:05;;;;;;;3.63;2.57;;;4.70;99.90;4.60;99827.00;;;;4964408;28;84294;-71
2023/11/19 05:51:31;;;;;;;2.20;1.67;;;4.70;99.90;4.60;99826.00;;;;4958872;28;111347;-69
2023/11/19 05:53:57;;;;;;;1.63;1.53;;;4.70;99.90;4.50;99832.00;;;;4952066;28;109928;-71
2023/11/19 05:56:32;;;;;;;2.30;2.10;;;4.70;99.90;4.60;99824.00;;;;4956484;28;83033;-70
2023/11/19 05:59:01;;;;;;;4.77;2.73;;;4.70;99.90;4.60;99826.00;;;;4958946;28;82041;-70
2023/11/19 06:01:26;;;;;;;2.50;2.30;;;4.80;99.90;4.60;99807.00;;;;4959287;28;82616;-71
2023/11/19 06:03:52;;;;;;;6.20;3.17;;;4.70;99.90;4.60;99808.00;;;;4960792;28;95469;-70
2023/11/19 06:06:18;;;;;;;3.17;2.40;;;4.70;99.90;4.60;99789.00;;;;4961116;28;95589;-68
2023/11/19 06:08:44;;;;;;;2.37;2.17;;;4.80;99.90;4.60;99793.00;;;;4973740;28;83144;-69
2023/11/19 06:11:18;;;;;;;3.07;2.00;;;4.80;99.90;4.60;99781.00;;;;4957527;28;83681;-70
2023/11/19 06:13:50;;;;;;;3.50;2.20;;;4.60;99.90;4.60;99780.00;;;;4954231;28;82899;-69
2023/11/19 06:16:16;;;;;;;3.13;2.13;;;4.80;99.90;4.70;99788.00;;;;4958616;28;82813;-71
2023/11/19 06:18:43;;;;;;;3.00;2.27;;;5.10;99.90;4.70;99780.00;;;;4958793;28;112644;-69
2023/11/19 06:21:09;;;;;;;2.97;2.60;;;4.80;99.90;4.70;99761.00;;;;4960855;28;82796;-70
2023/11/19 06:23:35;;;;;;;2.00;1.80;;;4.90;99.90;4.70;99777.00;;;;4956924;28;100858;-69
2023/11/19 06:26:01;;;;;;;4.03;2.53;;;4.90;99.90;4.70;99779.00;;;;4948009;28;107767;-69
2023/11/19 06:28:27;;;;;;;2.07;1.93;;;4.40;99.90;4.80;99774.00;;;;4967904;28;83813;-68
2023/11/19 06:30:53;;;;;;;5.13;2.63;;;5.00;99.90;4.80;99768.00;;;;4956586;28;85982;-68
2023/11/19 06:33:18;;;;;;;2.30;2.07;;;4.90;99.90;4.80;99773.00;;;;4958567;28;109753;-67
2023/11/19 06:35:44;;;;;;;2.20;2.00;;;4.90;99.90;4.80;99776.00;;;;4954730;28;82804;-67
2023/11/19 06:38:10;;;;;;;4.17;2.57;;;5.60;99.90;4.80;99768.00;;;;4957321;28;111018;-68
2023/11/19 06:40:36;;;;;;;3.10;2.33;;;5.00;99.90;4.80;99755.00;;;;4958422;28;83268;-68
2023/11/19 06:43:03;;;;;;;4.40;2.97;;;5.10;99.90;4.90;99759.00;;;;4959667;28;82764;-69
2023/11/19 06:45:29;;;;;;;2.27;2.07;;;5.30;99.90;4.90;99763.00;;;;4957479;28;88267;-68
2023/11/19 06:48:03;;;;;;;3.03;2.30;;;5.10;99.90;4.90;99764.00;;;;4951657;28;107380;-69
2023/11/19 06:50:28;;;;;;;2.27;1.80;;;5.10;99.90;4.90;99755.00;;;;4958216;28;87894;-70
2023/11/19 06:52:54;;;;;;;3.03;1.80;;;5.10;99.90;5.00;99754.00;;;;4957325;28;88157;-69
2023/11/19 06:55:20;;;;;;;6.10;2.17;;;5.10;99.90;5.00;99747.00;;;;4954047;28;88937;-67
2023/11/19 06:57:46;;;;;;;3.83;2.93;;;5.50;99.90;5.00;99744.00;;;;4957366;28;117232;-68
2023/11/19 07:00:12;;;;;;;3.63;2.30;;;5.20;99.90;5.00;99748.00;;;;4955222;28;116355;-69
2023/11/19 07:02:39;;;;;;;2.30;2.03;;;5.20;99.90;5.00;99746.00;;;;4954019;28;87857;-72
2023/11/19 07:05:05;;;;;;;3.60;2.17;;;5.10;99.90;5.00;99748.00;;;;4964075;28;88155;-70
2023/11/19 07:07:32;;;;;;;2.27;1.43;;;5.20;99.90;5.00;99754.00;;;;4952498;28;88136;-70
2023/11/19 07:09:58;;;;;;;2.83;2.40;;;5.30;99.90;5.10;99748.00;;;;4949277;28;88014;-68
2023/11/19 07:12:26;;;;;;;3.37;2.37;;;5.20;99.90;5.10;99751.00;;;;4954546;28;87210;-68
2023/11/19 07:14:52;;;;;;;4.93;2.90;;;5.20;99.90;5.10;99758.00;;;;4951409;28;88051;-68
2023/11/19 07:17:20;;;;;;;2.77;2.50;;;5.30;99.90;5.10;99763.00;;;;4952605;28;110024;-69
2023/11/19 07:19:46;;;;;;;5.50;2.77;;;5.70;99.90;5.20;99755.00;;;;4956445;28;89281;-69
2023/11/19 07:22:12;;;;;;;3.00;2.63;;;5.30;99.90;5.10;99755.00;;;;4952042;28;97052;-68
2023/11/19 07:24:41;;;;;;;2.67;2.10;;;5.30;99.90;5.20;99744.00;;;;4960903;28;107494;-69
2023/11/19 07:27:24;;;;;;;2.93;2.63;;;5.30;99.90;5.20;99741.00;;;;4956136;28;88885;-68
2023/11/19 07:29:49;;;;;;;3.60;2.27;;;5.40;99.90;5.20;99731.00;;;;4959648;28;88676;-68
2023/11/19 07:32:15;;;;;;;3.80;2.30;;;5.40;99.90;5.30;99738.00;;;;4953662;28;87787;-69
2023/11/19 07:34:41;;;;;;;2.70;2.17;;;5.40;99.90;5.30;99736.00;;;;4953905;28;107335;-69
2023/11/19 07:37:07;;;;;;;2.10;1.87;;;5.50;99.90;5.30;99741.00;;;;4957392;28;116150;-67
2023/11/19 07:39:32;;;;;;;1.30;1.13;;;6.20;99.90;5.40;99734.00;;;;4955344;28;87908;-67
2023/11/19 07:42:01;;;;;;;2.07;1.97;;;5.50;99.90;5.40;99744.00;;;;4965642;28;87901;-67
2023/11/19 07:44:26;;;;;;;2.37;2.10;;;5.50;99.90;5.40;99725.00;;;;4933742;28;89818;-68
2023/11/19 07:46:52;;;;;;;2.90;1.97;;;5.60;99.90;5.50;99733.00;;;;4957145;28;118473;-68
2023/11/19 07:49:18;;;;;;;2.27;1.53;;;5.60;99.90;5.60;99741.00;;;;4957645;28;116102;-68
2023/11/19 07:51:43;;;;;;;1.73;1.00;;;6.30;99.90;5.60;99731.00;;;;4952972;28;109698;-68
2023/11/19 07:54:09;;;;;;;3.00;1.33;;;5.70;99.90;5.60;99746.00;;;;4953015;28;94761;-68
2023/11/19 07:56:37;;;;;;;1.80;1.20;;;6.30;99.90;5.70;99743.00;;;;4951135;28;116253;-68
2023/11/19 07:59:03;;;;;;;2.00;1.57;;;6.10;99.90;5.80;99736.00;;;;4958049;28;88172;-68
2023/11/19 08:01:29;;;;;;;1.57;1.40;;;5.80;99.90;5.80;99735.00;;;;4963428;28;88451;-67
2023/11/19 08:03:55;;;;;;;1.43;1.30;;;6.40;99.90;5.90;99745.00;;;;4958697;28;107928;-68
2023/11/19 08:06:20;;;;;;;1.57;1.30;;;6.00;99.90;6.00;99735.00;;;;4950454;28;88009;-67
2023/11/19 08:08:47;;;;;;;3.37;1.00;;;6.20;99.90;6.10;99737.00;;;;4954410;28;116886;-67
2023/11/19 08:11:13;;;;;;;1.50;1.40;;;6.20;99.90;6.10;99740.00;;;;4951308;28;87597;-68
2023/11/19 08:13:39;;;;;;;1.63;1.33;;;7.00;99.90;6.20;99732.00;;;;4951195;28;88129;-68
2023/11/19 08:16:05;;;;;;;3.77;1.90;;;6.30;99.90;6.30;99747.00;;;;4947900;28;115237;-68
2023/11/19 08:18:31;;;;;;;2.10;1.37;;;6.40;99.90;6.30;99747.00;;;;4947155;28;105495;-68
2023/11/19 08:20:58;;;;;;;1.40;1.20;;;6.40;99.90;6.40;99748.00;;;;4960813;28;104626;-68
2023/11/19 08:23:25;;;;;;;1.40;1.30;;;6.50;99.90;6.50;99741.00;;;;4951134;28;88102;-68
2023/11/19 08:25:51;;;;;;;2.80;2.03;;;6.60;99.90;6.50;99742.00;;;;4950366;28;91708;-68
2023/11/19 08:28:20;;;;;;;5.63;1.60;;;6.70;99.90;6.60;99740.00;;;;4949451;28;87898;-68
2023/11/19 08:30:46;;;;;;;1.60;1.43;;;6.70;99.90;6.70;99720.00;;;;4952735;28;87906;-66
2023/11/19 08:33:11;;;;;;;2.43;1.43;;;6.80;99.90;6.70;99732.00;;;;4948674;28;101735;-68
2023/11/19 08:35:40;;;;;;;2.17;1.43;;;6.90;99.90;6.80;99723.00;;;;4953441;28;116475;-68
2023/11/19 08:38:05;;;;;;;3.00;1.87;;;7.10;99.90;6.90;99720.00;;;;4954199;28;88879;-67
2023/11/19 08:40:31;;;;;;;3.77;1.90;;;7.60;99.90;6.90;99723.00;;;;4949267;28;109853;-66
2023/11/19 08:42:57;;;;;;;2.87;2.00;;;7.50;99.90;7.00;99726.00;;;;4955262;28;87872;-67
2023/11/19 08:45:23;;;;;;;2.30;1.57;;;7.10;99.90;7.10;99736.00;;;;4953908;28;116716;-66
2023/11/19 08:47:49;;;;;;;1.77;1.37;;;7.20;99.90;7.10;99740.00;;;;4953991;28;87873;-67
2023/11/19 08:50:14;;;;;;;3.33;1.20;;;7.30;99.90;7.20;99748.00;;;;4952333;28;110716;-67
2023/11/19 08:52:40;;;;;;;1.53;1.43;;;7.30;99.90;7.30;99745.00;;;;4942746;28;88372;-67
2023/11/19 08:55:06;;;;;;;1.53;1.20;;;7.50;99.90;7.50;99738.00;;;;4945863;28;116383;-67
2023/11/19 08:57:35;;;;;;;1.87;1.70;;;7.50;99.90;7.60;99731.00;;;;4959346;28;88766;-67
2023/11/19 09:00:01;;;;;;;1.63;1.53;;;7.70;99.90;7.70;99730.00;;;;4951703;28;87986;-68
2023/11/19 09:02:27;;;;;;;2.83;1.50;;;7.80;99.90;7.80;99736.00;;;;4946385;28;87897;-68
2023/11/19 09:04:52;;;;;;;1.70;1.47;;;8.00;99.90;7.90;99733.00;;;;4952697;28;115675;-67
2023/11/19 09:07:18;;;;;;;2.40;1.30;;;8.00;99.90;8.00;99732.00;;;;4948087;28;116527;-69
2023/11/19 09:09:44;;;;;;;2.80;1.00;;;8.10;99.90;8.20;99737.00;;;;4952194;28;87849;-67
2023/11/19 09:12:09;;;;;;;1.53;1.13;;;8.20;99.90;8.40;99729.00;;;;4952833;28;107861;-68
2023/11/19 09:14:35;;;;;;;1.33;0.83;;;8.40;99.90;8.70;99732.00;;;;4951408;28;116073;-68
2023/11/19 09:17:01;;;;;;;10.13;1.20;;;8.70;99.90;8.90;99731.00;;;;4956635;28;116302;-68
2023/11/19 09:19:26;;;;;;;1.43;0.97;;;8.90;99.90;9.20;99740.00;;;;4950820;28;88208;-68
2023/11/19 09:21:53;;;;;;;3.07;0.87;;;9.20;99.90;9.60;99725.00;;;;4950964;28;108994;-70
2023/11/19 09:24:19;;;;;;;0.77;0.77;;;9.50;99.90;10.10;99735.00;;;;4945471;28;88880;-68
2023/11/19 09:26:45;;;;;;;0.70;0.70;;;9.90;99.90;10.30;99735.00;;;;4950269;28;105651;-70
2023/11/19 09:29:11;;;;;;;0.53;0.53;;;10.30;99.90;10.50;99726.00;;;;4949315;28;110051;-69
2023/11/19 09:31:40;;;;;;;0.83;0.70;;;10.50;99.90;10.70;99741.00;;;;4948534;28;87910;-69
2023/11/19 09:34:05;;;;;;;0.83;0.70;;;10.70;99.90;11.00;99749.00;;;;4947249;28;98077;-71
2023/11/19 09:36:31;;;;;;;2.57;0.37;;;11.00;99.90;11.30;99746.00;;;;4928474;28;95010;-69
2023/11/19 09:38:57;;;;;;;0.33;0.33;;;11.30;99.90;11.60;99739.00;;;;4949284;28;111860;-71
2023/11/19 09:41:24;;;;;;;0.70;0.50;;;11.60;99.90;11.80;99736.00;;;;4949197;28;87960;-71
2023/11/19 09:43:50;;;;;;;1.03;0.30;;;11.80;99.90;11.80;99740.00;;;;4947641;28;91407;-70
2023/11/19 09:46:16;;;;;;;0.23;0.23;;;11.90;99.90;11.80;99741.00;;;;4947335;28;117552;-68
2023/11/19 09:48:44;;;;;;;0.20;0.17;;;11.90;99.90;11.70;99744.00;;;;4947040;28;109976;-69
2023/11/19 09:51:11;;;;;;;0.43;0.27;;;11.80;99.90;11.70;99750.00;;;;4947071;28;88229;-68
2023/11/19 09:53:37;;;;;;;0.50;0.50;;;11.80;99.90;11.90;99741.00;;;;4959715;28;87706;-69
2023/11/19 09:56:05;;;;;;;0.50;0.17;;;11.90;99.90;12.20;99734.00;;;;4945576;28;98055;-69
2023/11/19 09:58:33;;;;;;;0.20;0.20;;;12.20;99.90;12.40;99729.00;;;;4948019;28;87876;-70
2023/11/19 10:01:00;;;;;;;1.90;0.40;;;12.40;99.90;12.70;99722.00;;;;4938115;28;87771;-68
2023/11/19 10:03:35;;;;;;;0.30;0.30;;;12.90;99.90;12.80;99727.00;;;;4953404;28;87057;-68
2023/11/19 10:06:02;;;;;;;1.03;0.30;;;12.90;99.90;13.00;99726.00;;;;4950712;28;87936;-68
2023/11/19 10:08:28;;;;;;;2.63;0.47;;;13.10;99.90;13.30;99724.00;;;;4948945;28;99314;-67
2023/11/19 10:10:54;;;;;;;1.10;0.73;;;13.20;99.90;13.40;99733.00;;;;4949385;28;88970;-67
2023/11/19 10:13:19;;;;;;;1.20;0.40;;;13.40;99.90;13.50;99732.00;;;;4959840;28;115528;-67
2023/11/19 10:15:47;;;;;;;0.63;0.23;;;13.60;99.90;13.60;99729.00;;;;4950391;28;118464;-68
2023/11/19 10:18:14;;;;;;;2.10;0.63;;;13.60;99.90;13.80;99739.00;;;;4948777;28;108110;-67
2023/11/19 10:20:41;;;;;;;0.47;0.47;;;13.80;99.90;13.90;99732.00;;;;4947965;28;99059;-65
2023/11/19 10:23:07;;;;;;;6.17;0.83;;;13.90;99.90;14.10;99730.00;;;;4950930;28;116675;-66
2023/11/19 10:25:33;;;;;;;0.20;0.20;;;14.10;99.90;14.20;99729.00;;;;4953560;28;98524;-67
2023/11/19 10:28:00;;;;;;;0.13;0.13;;;14.20;99.90;14.30;99720.00;;;;4944187;28;111795;-69
2023/11/19 10:30:29;;;;;;;0.90;0.30;;;14.30;99.90;14.50;99720.00;;;;4955576;28;88096;-68
2023/11/19 10:33:10;;;;;;;0.65;0.40;;;14.50;99.90;14.70;99715.00;;;;4949283;28;88743;-67
2023/11/19 10:35:58;;;;;;;1.75;0.63;;;14.60;99.90;14.80;99728.00;;;;4945114;28;88791;-70
2023/11/19 10:38:25;;;;;;;1.13;0.57;;;14.80;99.90;15.00;99710.00;;;;4950915;28;87806;-68
2023/11/19 10:40:52;;;;;;;0.43;0.40;;;14.90;99.90;15.00;99717.00;;;;4950577;28;87760;-68
2023/11/19 10:43:18;;;;;;;3.25;0.50;;;15.00;99.90;15.00;99718.00;;;;4948760;28;89848;-70
2023/11/19 10:45:44;;;;;;;1.00;0.50;;;15.10;99.90;14.90;99720.00;;;;4952412;28;88166;-68
2023/11/19 10:48:12;;;;;;;7.55;0.93;;;14.90;99.90;15.00;99714.00;;;;4945147;28;107729;-68
2023/11/19 10:50:40;;;;;;;0.50;0.50;;;14.90;99.90;15.20;99710.00;;;;4953539;28;87929;-65
2023/11/19 10:53:09;;;;;;;3.03;0.90;;;15.10;99.90;15.30;99699.00;;;;4951270;28;87878;-66
2023/11/19 10:55:38;;;;;;;1.95;0.90;;;15.20;99.90;15.50;99711.00;;;;4954285;28;99223;-67
2023/11/19 10:58:07;;;;;;;1.55;0.30;;;15.40;99.90;15.60;99705.00;;;;4946210;28;88201;-69
2023/11/19 11:00:51;;;;;;;2.05;0.75;;;15.60;99.90;15.80;99704.00;;;;4955207;28;88591;-67